Current Weather

Sarh (Civ/Mil)

Sarh (Civ/Mil), Chad (FTTA)

Report from: Tuesday, February 27, 2024 10:00 AM WAT
Current time: Tuesday, February 27, 2024 10:28 AM WAT

Nearby weather – Weather history – Daily summaries
Weather forecast

Temperature35.0°C (95.0°F)
Heat index33.1°C (91.6°F)
Dew point9.0°C (48.2°F)
Winds 4 kts (2.1 m/s, 4.6 mph) East (80°)
Visibility5 mi. (8 km)
Altimeter29.88 in.Hg (1012 mB)
Relative humidity20 %
Density altitude2,477 ft. (755 m)
Flight conditions Marginal Visual Meteorological Conditions
Raw dataFTTA 270900Z 08004KT 8000 NSC 35/09 Q1012
An error has occurred. This application may no longer respond until reloaded. Reload 🗙